Time;durP1;ratioP1;P1;durP2;ratioP2;P2;SDS_P1;SDS_P2;PMS_P1;PMS_P2;Temp;Humidity;BMP_temperature;BMP_pressure;BME280_temperature;BME280_humidity;BME280_pressure;Samples;Min_cycle;Max_cycle;Signal;HPM_P1;HPM_P2
2021/01/05 00:01:52;;;;;;;95.87;27.43;;;2.20;99.90;;;;;;4415154;28;658621;-67
2021/01/05 00:04:39;;;;;;;113.03;35.53;;;2.20;99.90;;;;;;4397158;28;657767;-67
2021/01/05 00:07:26;;;;;;;88.93;29.37;;;2.30;99.90;;;;;;4417214;28;659261;-68
2021/01/05 00:10:14;;;;;;;112.47;33.53;;;2.20;99.90;;;;;;4401707;28;657539;-66
2021/01/05 00:13:00;;;;;;;117.47;32.93;;;2.20;99.90;;;;;;4418090;28;658352;-67
2021/01/05 00:15:48;;;;;;;124.80;32.93;;;2.20;99.90;;;;;;4414187;28;659198;-67
2021/01/05 00:18:35;;;;;;;97.10;31.23;;;2.20;99.90;;;;;;4385880;28;660527;-67
2021/01/05 00:21:25;;;;;;;113.57;29.80;;;2.20;99.90;;;;;;4415673;28;659528;-67
2021/01/05 00:24:12;;;;;;;118.47;29.23;;;2.20;99.90;;;;;;4386919;28;658967;-67
2021/01/05 00:26:59;;;;;;;128.57;28.53;;;2.30;99.90;;;;;;4369054;28;659420;-67
2021/01/05 00:29:46;;;;;;;116.73;29.30;;;2.30;99.90;;;;;;4399526;28;660478;-68
2021/01/05 00:32:34;;;;;;;108.40;26.13;;;2.30;99.90;;;;;;4414041;28;659519;-67
2021/01/05 00:35:23;;;;;;;121.70;27.43;;;2.40;99.90;;;;;;4377526;28;659544;-68
2021/01/05 00:38:11;;;;;;;106.90;27.67;;;2.30;99.90;;;;;;4394686;28;659494;-67
2021/01/05 00:40:58;;;;;;;93.38;24.98;;;2.40;99.90;;;;;;4403331;28;659012;-67
2021/01/05 00:43:44;;;;;;;127.83;32.60;;;2.40;99.90;;;;;;4376378;28;657344;-67
2021/01/05 00:46:31;;;;;;;109.47;29.17;;;2.30;99.90;;;;;;4387124;28;660434;-67
2021/01/05 00:49:19;;;;;;;109.28;29.95;;;2.40;99.90;;;;;;4399177;28;660223;-65
2021/01/05 00:52:07;;;;;;;90.33;26.63;;;2.30;99.90;;;;;;4409488;28;659650;-67
2021/01/05 00:54:54;;;;;;;102.53;25.63;;;2.30;99.90;;;;;;4398552;28;657575;-65
2021/01/05 00:57:41;;;;;;;91.77;27.27;;;2.30;99.90;;;;;;4406292;28;659337;-67
2021/01/05 01:00:28;;;;;;;87.43;26.57;;;2.30;99.90;;;;;;4414719;28;658370;-67
2021/01/05 01:03:15;;;;;;;100.57;27.00;;;2.30;99.90;;;;;;4378529;28;657516;-67
2021/01/05 01:06:03;;;;;;;90.83;28.27;;;2.30;99.90;;;;;;4374915;28;660689;-67
2021/01/05 01:08:50;;;;;;;78.37;25.27;;;2.30;99.90;;;;;;4378527;28;658098;-67
2021/01/05 01:11:37;;;;;;;88.50;25.80;;;2.30;99.90;;;;;;4415004;28;659099;-68
2021/01/05 01:14:24;;;;;;;89.13;24.83;;;2.20;99.90;;;;;;4384366;28;657515;-67
2021/01/05 01:17:11;;;;;;;90.90;24.03;;;2.30;99.90;;;;;;4412704;28;658268;-68
2021/01/05 01:19:59;;;;;;;99.93;25.23;;;2.30;99.90;;;;;;4381267;28;657533;-65
2021/01/05 01:22:47;;;;;;;87.55;24.70;;;2.40;99.90;;;;;;4365817;28;657516;-67
2021/01/05 01:25:34;;;;;;;100.60;25.80;;;2.40;99.90;;;;;;4375646;28;657807;-65
2021/01/05 01:28:21;;;;;;;84.90;27.27;;;2.40;99.90;;;;;;4418220;28;658683;-67
2021/01/05 01:31:07;;;;;;;87.00;25.33;;;2.30;99.90;;;;;;4414317;28;658221;-67
2021/01/05 01:33:54;;;;;;;75.63;23.63;;;2.40;99.90;;;;;;4395791;28;657599;-67
2021/01/05 01:36:41;;;;;;;77.50;23.13;;;2.60;99.90;;;;;;4407985;28;658237;-67
2021/01/05 01:39:30;;;;;;;78.87;22.47;;;2.60;99.90;;;;;;4392659;28;657534;-65
2021/01/05 01:42:18;;;;;;;67.47;22.30;;;2.50;99.90;;;;;;4406454;28;659528;-67
2021/01/05 01:45:09;;;;;;;67.83;22.17;;;2.50;99.90;;;;;;4390110;28;657650;-67
2021/01/05 01:47:56;;;;;;;65.47;20.65;;;2.50;99.90;;;;;;4385554;28;659226;-67
2021/01/05 01:50:43;;;;;;;60.13;20.05;;;2.50;99.90;;;;;;4414104;28;658056;-67
2021/01/05 01:53:39;;;;;;;67.20;22.23;;;2.40;99.90;;;;;;4389359;28;657563;-68
2021/01/05 01:56:59;;;;;;;84.60;22.53;;;2.40;99.90;;;;;;4368288;28;658798;-68
2021/01/05 02:00:04;;;;;;;63.13;22.90;;;2.40;99.90;;;;;;4363619;28;658679;-67
2021/01/05 02:03:19;;;;;;;85.43;23.80;;;2.40;99.90;;;;;;4384183;28;658135;-67
2021/01/05 02:06:13;;;;;;;63.77;22.03;;;2.40;99.90;;;;;;4370083;28;658019;-68
2021/01/05 02:09:07;;;;;;;61.10;21.67;;;2.30;99.90;;;;;;4372054;28;658940;-67
2021/01/05 02:11:58;;;;;;;57.30;22.10;;;2.30;99.90;;;;;;4367361;28;658253;-67
2021/01/05 02:14:55;;;;;;;76.30;23.60;;;2.40;99.90;;;;;;4393666;28;659499;-67
2021/01/05 02:18:06;;;;;;;64.40;21.87;;;2.40;99.90;;;;;;4393743;28;658783;-67
2021/01/05 02:20:54;;;;;;;61.20;20.88;;;2.40;99.90;;;;;;4387165;28;658527;-67
2021/01/05 02:24:01;;;;;;;48.88;17.88;;;2.50;99.90;;;;;;4392975;28;658523;-67
2021/01/05 02:26:51;;;;;;;40.33;16.57;;;2.50;99.90;;;;;;4389178;28;657376;-65
2021/01/05 02:29:42;;;;;;;40.70;17.27;;;2.50;99.90;;;;;;4390457;28;658333;-65
2021/01/05 02:32:36;;;;;;;40.07;17.60;;;2.50;99.90;;;;;;4399823;28;657557;-65
2021/01/05 02:35:35;;;;;;;36.57;15.70;;;2.60;99.90;;;;;;4395100;28;658030;-67
2021/01/05 02:38:32;;;;;;;33.73;14.43;;;2.60;99.90;;;;;;4388359;28;657926;-67
2021/01/05 02:41:24;;;;;;;36.93;14.70;;;2.50;99.90;;;;;;4387717;28;657534;-67
2021/01/05 02:44:31;;;;;;;38.80;16.03;;;2.50;99.90;;;;;;4394295;28;659043;-67
2021/01/05 02:47:46;;;;;;;36.67;14.57;;;2.40;99.90;;;;;;4388494;28;657776;-67
2021/01/05 02:50:56;;;;;;;33.90;13.90;;;2.50;99.90;;;;;;4382711;28;657559;-64
2021/01/05 02:54:21;;;;;;;35.93;13.73;;;2.50;99.90;;;;;;4385014;28;658921;-67
2021/01/05 02:57:15;;;;;;;34.73;13.63;;;2.50;99.90;;;;;;4328530;28;657287;-65
2021/01/05 03:00:30;;;;;;;34.03;12.47;;;2.50;99.90;;;;;;4341295;28;659295;-67
2021/01/05 03:03:39;;;;;;;37.17;13.43;;;2.50;99.90;;;;;;4339825;28;657497;-67
2021/01/05 03:06:33;;;;;;;34.63;13.13;;;2.50;99.90;;;;;;4300318;28;658558;-67
2021/01/05 03:09:57;;;;;;;34.63;13.10;;;2.40;99.90;;;;;;4311858;28;658816;-67
2021/01/05 03:13:35;;;;;;;29.48;12.32;;;2.40;99.90;;;;;;4344876;28;657622;-64
2021/01/05 03:16:24;;;;;;;27.43;12.03;;;2.30;99.90;;;;;;4334941;28;658222;-67
2021/01/05 03:19:17;;;;;;;25.63;12.00;;;2.50;99.90;;;;;;4340712;28;657924;-67
2021/01/05 03:22:05;;;;;;;30.43;11.93;;;2.60;99.90;;;;;;4340743;28;657315;-64
2021/01/05 03:24:52;;;;;;;26.83;11.23;;;2.60;99.90;;;;;;4363389;28;657923;-67
2021/01/05 03:27:39;;;;;;;26.63;11.97;;;2.50;99.90;;;;;;4338701;28;657615;-66
2021/01/05 03:30:29;;;;;;;22.90;10.90;;;2.50;99.90;;;;;;4356415;28;658564;-67
2021/01/05 03:33:17;;;;;;;22.60;9.80;;;2.40;99.90;;;;;;4334220;28;658759;-67
2021/01/05 03:36:05;;;;;;;23.40;9.70;;;2.40;99.90;;;;;;4345592;28;656464;-67
2021/01/05 03:38:52;;;;;;;19.30;8.83;;;2.40;99.90;;;;;;4411040;28;657359;-67
2021/01/05 03:41:41;;;;;;;19.33;8.53;;;2.40;99.90;;;;;;4392888;28;656123;-66
2021/01/05 03:44:28;;;;;;;24.60;9.70;;;2.40;99.90;;;;;;4411826;28;656300;-68
2021/01/05 03:47:15;;;;;;;24.40;10.37;;;2.40;99.90;;;;;;4394180;28;657622;-67
2021/01/05 03:50:04;;;;;;;21.93;10.03;;;2.30;99.90;;;;;;4415777;28;659090;-67
2021/01/05 03:52:51;;;;;;;20.70;9.33;;;2.30;99.90;;;;;;4392396;28;658253;-67
2021/01/05 03:55:38;;;;;;;16.93;8.77;;;2.30;99.90;;;;;;4396755;28;657926;-68
2021/01/05 03:58:25;;;;;;;21.15;10.23;;;2.30;99.90;;;;;;4393248;28;656540;-67
2021/01/05 04:01:12;;;;;;;23.27;9.70;;;2.40;99.90;;;;;;4400610;28;659015;-67
2021/01/05 04:03:59;;;;;;;21.63;10.13;;;2.40;99.90;;;;;;4381350;28;656988;-65
2021/01/05 04:06:46;;;;;;;21.63;9.47;;;2.40;99.90;;;;;;4407347;28;657286;-66
2021/01/05 04:09:34;;;;;;;20.25;9.80;;;2.30;99.90;;;;;;4386159;28;657065;-64
2021/01/05 04:12:21;;;;;;;17.83;8.33;;;2.30;99.90;;;;;;4404703;28;656342;-67
2021/01/05 04:15:09;;;;;;;25.97;9.97;;;2.30;99.90;;;;;;4407953;28;656667;-67
2021/01/05 04:17:57;;;;;;;18.63;9.30;;;2.30;99.90;;;;;;4377321;28;657923;-68
2021/01/05 04:20:44;;;;;;;22.60;9.73;;;2.40;99.90;;;;;;4382455;28;657877;-66
2021/01/05 04:23:31;;;;;;;22.33;9.93;;;2.30;99.90;;;;;;4407777;28;656229;-67
2021/01/05 04:26:19;;;;;;;22.70;10.67;;;2.30;99.90;;;;;;4395410;28;656499;-66
2021/01/05 04:29:06;;;;;;;20.07;10.07;;;2.30;99.90;;;;;;4402058;28;658189;-68
2021/01/05 04:31:52;;;;;;;23.53;10.43;;;2.40;99.90;;;;;;4411074;28;657866;-68
2021/01/05 04:34:39;;;;;;;20.23;10.40;;;2.40;99.90;;;;;;4382731;28;657700;-68
2021/01/05 04:37:26;;;;;;;20.40;8.13;;;2.40;99.90;;;;;;4411301;28;657575;-68
2021/01/05 04:40:24;;;;;;;22.67;9.70;;;2.40;99.90;;;;;;4387839;28;656784;-65
2021/01/05 04:43:32;;;;;;;25.73;9.57;;;2.40;99.90;;;;;;4385458;28;657115;-68
2021/01/05 04:46:41;;;;;;;22.67;9.80;;;2.50;99.90;;;;;;4359675;28;656790;-67
2021/01/05 04:50:07;;;;;;;20.80;9.33;;;2.40;99.90;;;;;;4377831;28;656821;-68
2021/01/05 04:52:59;;;;;;;19.30;8.07;;;2.50;99.90;;;;;;4373297;28;656839;-67
2021/01/05 04:55:53;;;;;;;25.17;9.83;;;2.50;99.90;;;;;;4389588;28;657178;-68
2021/01/05 04:58:42;;;;;;;20.33;9.40;;;2.50;99.90;;;;;;4359808;28;658276;-67
2021/01/05 05:01:30;;;;;;;21.67;8.73;;;2.40;99.90;;;;;;4397773;28;656423;-67
2021/01/05 05:04:22;;;;;;;23.07;9.93;;;2.40;99.90;;;;;;4411522;28;656809;-68
2021/01/05 05:07:16;;;;;;;20.73;9.47;;;2.50;99.90;;;;;;4374603;28;656675;-65
2021/01/05 05:10:05;;;;;;;20.43;8.87;;;2.70;99.90;;;;;;4393800;28;657548;-68
2021/01/05 05:12:57;;;;;;;22.23;9.10;;;2.60;99.90;;;;;;4390900;28;658083;-68
2021/01/05 05:15:47;;;;;;;23.77;9.27;;;2.60;99.90;;;;;;4395639;28;656465;-67
2021/01/05 05:18:43;;;;;;;21.20;8.80;;;2.50;99.90;;;;;;4392397;28;656633;-68
2021/01/05 05:21:33;;;;;;;21.00;9.70;;;2.50;99.90;;;;;;4397329;28;656448;-68
2021/01/05 05:24:30;;;;;;;21.17;10.13;;;2.50;99.90;;;;;;4393431;28;657243;-68
2021/01/05 05:27:25;;;;;;;16.98;7.93;;;2.50;99.90;;;;;;4391342;28;657718;-68
2021/01/05 05:30:14;;;;;;;19.83;8.77;;;2.50;99.90;;;;;;4393783;28;658177;-68
2021/01/05 05:33:01;;;;;;;22.07;8.20;;;2.50;99.90;;;;;;4388654;28;658708;-68
2021/01/05 05:35:58;;;;;;;21.30;8.65;;;2.50;99.90;;;;;;4396395;28;656796;-65
2021/01/05 05:39:13;;;;;;;19.43;7.40;;;2.50;99.90;;;;;;4368472;28;657926;-68
2021/01/05 05:42:05;;;;;;;23.00;8.20;;;2.50;99.90;;;;;;4283996;29;658064;-68
2021/01/05 05:44:54;;;;;;;16.77;7.10;;;2.50;99.90;;;;;;4303362;29;658123;-68
2021/01/05 05:47:45;;;;;;;26.45;9.55;;;2.60;99.90;;;;;;4314276;29;658182;-68
2021/01/05 05:50:35;;;;;;;11.27;5.70;;;2.60;99.90;;;;;;4303957;29;658189;-68
2021/01/05 05:53:25;;;;;;;16.03;6.87;;;2.70;99.90;;;;;;4309863;29;657096;-68
2021/01/05 05:56:13;;;;;;;11.07;5.50;;;2.70;99.90;;;;;;4303999;29;657750;-68
2021/01/05 05:59:00;;;;;;;21.30;7.97;;;2.70;99.90;;;;;;4293269;29;657818;-68
2021/01/05 06:01:47;;;;;;;17.07;6.87;;;2.70;99.90;;;;;;4315445;29;657390;-68
2021/01/05 06:04:35;;;;;;;11.80;6.30;;;2.80;99.90;;;;;;4290460;29;656587;-67
2021/01/05 06:07:22;;;;;;;11.50;5.93;;;2.70;99.90;;;;;;4315158;29;657294;-68
2021/01/05 06:10:10;;;;;;;15.03;6.30;;;2.70;99.90;;;;;;4295919;29;656718;-67
2021/01/05 06:12:57;;;;;;;9.90;4.87;;;2.60;99.90;;;;;;4315215;29;657081;-68
2021/01/05 06:15:44;;;;;;;12.80;5.53;;;2.60;99.90;;;;;;4297827;29;656324;-68
2021/01/05 06:18:31;;;;;;;13.00;6.30;;;2.70;99.90;;;;;;4306711;29;658412;-68
2021/01/05 06:21:20;;;;;;;29.10;9.00;;;2.70;99.90;;;;;;4310942;28;656442;-65
2021/01/05 06:24:07;;;;;;;31.37;9.33;;;2.60;99.90;;;;;;4397982;28;658692;-68
2021/01/05 06:26:54;;;;;;;17.67;6.90;;;2.50;99.90;;;;;;4383313;28;656557;-68
2021/01/05 06:29:41;;;;;;;18.60;8.37;;;2.40;99.90;;;;;;4401788;28;658152;-68
2021/01/05 06:32:29;;;;;;;16.33;6.47;;;2.40;99.90;;;;;;4390743;28;656714;-65
2021/01/05 06:35:17;;;;;;;11.23;5.57;;;2.50;99.90;;;;;;4405665;28;656469;-67
2021/01/05 06:38:05;;;;;;;10.23;6.17;;;2.50;99.90;;;;;;4382635;28;656510;-66
2021/01/05 06:40:51;;;;;;;8.57;4.67;;;2.70;99.90;;;;;;4397219;28;656758;-68
2021/01/05 06:43:39;;;;;;;10.35;4.55;;;2.60;99.90;;;;;;4380956;28;656664;-64
2021/01/05 06:46:26;;;;;;;7.07;4.17;;;2.60;99.90;;;;;;4405287;28;656082;-68
2021/01/05 06:49:13;;;;;;;9.53;4.37;;;2.50;99.90;;;;;;4395381;28;655044;-68
2021/01/05 06:52:00;;;;;;;8.30;4.40;;;2.50;99.90;;;;;;4383829;28;655753;-67
2021/01/05 06:54:47;;;;;;;7.30;3.60;;;2.50;99.90;;;;;;4395979;28;657632;-68
2021/01/05 06:57:34;;;;;;;10.17;3.87;;;2.60;99.90;;;;;;4381930;28;655512;-67
2021/01/05 07:00:22;;;;;;;9.97;5.13;;;2.70;99.90;;;;;;4396505;28;656953;-68
2021/01/05 07:03:09;;;;;;;10.50;5.50;;;2.60;99.90;;;;;;4383709;28;655442;-67
2021/01/05 07:05:56;;;;;;;9.23;4.63;;;2.50;99.90;;;;;;4395512;28;658118;-68
2021/01/05 07:08:44;;;;;;;9.13;4.20;;;2.70;99.90;;;;;;4401619;28;655294;-65
2021/01/05 07:11:32;;;;;;;6.57;3.67;;;2.60;99.90;;;;;;4406114;28;655086;-68
2021/01/05 07:14:20;;;;;;;8.33;3.80;;;2.60;99.90;;;;;;4383004;28;656696;-66
2021/01/05 07:17:07;;;;;;;6.77;3.70;;;2.50;99.90;;;;;;4394083;28;657566;-68
2021/01/05 07:19:54;;;;;;;8.13;4.00;;;2.50;99.90;;;;;;4375337;28;655114;-65
2021/01/05 07:22:41;;;;;;;11.87;4.83;;;2.60;99.90;;;;;;4402307;28;656439;-68
2021/01/05 07:25:28;;;;;;;8.60;3.72;;;2.50;99.90;;;;;;4396722;28;656821;-68
2021/01/05 07:28:16;;;;;;;8.90;3.90;;;2.50;99.90;;;;;;4383012;28;655551;-67
2021/01/05 07:31:02;;;;;;;9.33;4.43;;;2.60;99.90;;;;;;4396906;28;655919;-68
2021/01/05 07:33:50;;;;;;;9.27;4.63;;;2.50;99.90;;;;;;4381964;28;655777;-67
2021/01/05 07:36:38;;;;;;;5.87;3.40;;;2.50;99.90;;;;;;4394670;28;656910;-68
2021/01/05 07:39:26;;;;;;;7.63;3.47;;;2.60;99.90;;;;;;4378787;28;656982;-68
2021/01/05 07:42:16;;;;;;;5.57;2.80;;;2.60;99.90;;;;;;4401261;28;656192;-68
2021/01/05 07:45:07;;;;;;;7.23;3.00;;;2.70;99.90;;;;;;4378988;28;655719;-68
2021/01/05 07:47:54;;;;;;;17.77;5.70;;;2.60;99.90;;;;;;4356522;28;655536;-65
2021/01/05 07:50:40;;;;;;;6.33;2.73;;;2.70;99.90;;;;;;4395619;28;657332;-68
2021/01/05 07:53:27;;;;;;;4.33;2.20;;;2.70;99.90;;;;;;4401210;28;656564;-68
2021/01/05 07:56:14;;;;;;;6.30;2.60;;;2.80;99.90;;;;;;4382177;28;655526;-67
2021/01/05 07:59:01;;;;;;;4.80;2.00;;;2.90;99.90;;;;;;4399680;28;656841;-68
2021/01/05 08:01:50;;;;;;;3.03;1.80;;;2.80;99.90;;;;;;4379789;28;655510;-65
2021/01/05 08:04:37;;;;;;;3.73;2.10;;;2.70;99.90;;;;;;4397909;28;656430;-68
2021/01/05 08:07:24;;;;;;;3.08;1.88;;;2.60;99.90;;;;;;4377432;28;655508;-66
2021/01/05 08:10:16;;;;;;;2.90;1.80;;;2.60;99.90;;;;;;4393956;28;655723;-68
2021/01/05 08:13:05;;;;;;;3.00;1.57;;;2.70;99.90;;;;;;4377542;28;656072;-68
2021/01/05 08:15:52;;;;;;;3.03;1.67;;;2.60;99.90;;;;;;4374258;28;657141;-68
2021/01/05 08:18:40;;;;;;;4.70;2.00;;;2.60;99.90;;;;;;4376356;28;655827;-65
2021/01/05 08:21:27;;;;;;;2.93;1.90;;;2.60;99.90;;;;;;4394580;28;656949;-68
2021/01/05 08:24:14;;;;;;;4.53;2.03;;;2.60;99.90;;;;;;4367501;28;655779;-66
2021/01/05 08:27:01;;;;;;;3.57;1.63;;;2.60;99.90;;;;;;4390868;28;655312;-68
2021/01/05 08:29:48;;;;;;;5.10;1.77;;;2.50;99.90;;;;;;4400130;28;656015;-68
2021/01/05 08:32:35;;;;;;;2.20;1.63;;;2.70;99.90;;;;;;4371558;28;656080;-68
2021/01/05 08:35:23;;;;;;;3.08;1.63;;;2.70;99.90;;;;;;4391611;28;657099;-69
2021/01/05 08:38:10;;;;;;;4.03;2.00;;;2.80;99.90;;;;;;4372739;28;657356;-68
2021/01/05 08:40:57;;;;;;;4.20;2.30;;;2.80;99.90;;;;;;4400513;28;656022;-68
2021/01/05 08:43:44;;;;;;;3.67;1.88;;;2.60;99.90;;;;;;4370400;28;656316;-67
2021/01/05 08:46:31;;;;;;;4.40;2.10;;;2.60;99.90;;;;;;4401976;28;656934;-68
2021/01/05 08:49:19;;;;;;;5.77;2.40;;;2.60;99.90;;;;;;4384136;28;655431;-66
2021/01/05 08:52:07;;;;;;;4.68;2.00;;;2.60;99.90;;;;;;4396040;28;655245;-68
2021/01/05 08:54:54;;;;;;;2.90;1.73;;;2.60;99.90;;;;;;4374014;28;655590;-66
2021/01/05 08:57:41;;;;;;;3.78;2.10;;;2.70;99.90;;;;;;4393512;28;654995;-69
2021/01/05 09:00:28;;;;;;;5.07;1.90;;;2.80;99.90;;;;;;4390739;28;656223;-69
2021/01/05 09:03:15;;;;;;;5.03;1.80;;;2.70;99.90;;;;;;4367374;28;655353;-68
2021/01/05 09:06:02;;;;;;;3.40;1.87;;;2.90;99.90;;;;;;4399900;28;656518;-68
2021/01/05 09:08:50;;;;;;;4.43;1.70;;;3.10;99.90;;;;;;4381211;28;655791;-67
2021/01/05 09:11:37;;;;;;;4.43;1.70;;;3.10;99.90;;;;;;4398812;28;655845;-68
2021/01/05 09:14:24;;;;;;;5.40;2.17;;;3.10;99.90;;;;;;4379992;28;655889;-69
2021/01/05 09:17:11;;;;;;;4.77;2.17;;;3.10;99.90;;;;;;4399019;28;657010;-68
2021/01/05 09:19:59;;;;;;;8.17;2.53;;;3.10;99.90;;;;;;4391656;28;656459;-65
2021/01/05 09:22:46;;;;;;;8.07;2.43;;;3.10;99.90;;;;;;4403428;28;656424;-68
2021/01/05 09:25:33;;;;;;;8.37;2.47;;;3.20;99.90;;;;;;4392426;28;656016;-69
2021/01/05 09:28:21;;;;;;;8.17;2.50;;;3.30;99.90;;;;;;4370479;28;657924;-69
2021/01/05 09:31:08;;;;;;;7.53;2.73;;;3.20;99.90;;;;;;4396760;28;656104;-69
2021/01/05 09:33:55;;;;;;;8.10;2.63;;;3.20;99.90;;;;;;4372063;28;655755;-69
2021/01/05 09:36:42;;;;;;;10.63;3.25;;;3.20;99.90;;;;;;4399296;28;656569;-69
2021/01/05 09:39:29;;;;;;;11.33;2.90;;;3.10;99.90;;;;;;4377097;28;656962;-65
2021/01/05 09:42:16;;;;;;;10.30;3.23;;;3.30;99.90;;;;;;4384356;28;656312;-68
2021/01/05 09:45:05;;;;;;;7.13;3.20;;;3.20;99.90;;;;;;4382233;28;656457;-65
2021/01/05 09:48:01;;;;;;;9.23;3.73;;;3.00;99.90;;;;;;4402795;28;656962;-68
2021/01/05 09:50:49;;;;;;;8.00;3.40;;;2.80;99.90;;;;;;4358735;28;655205;-65
2021/01/05 09:53:36;;;;;;;7.87;3.73;;;2.70;99.90;;;;;;4399369;28;656162;-68
2021/01/05 09:56:23;;;;;;;7.23;3.60;;;2.80;99.90;;;;;;4388846;28;655310;-69
2021/01/05 09:59:11;;;;;;;7.80;3.50;;;2.80;99.90;;;;;;4370011;28;656270;-68
2021/01/05 10:02:02;;;;;;;8.90;3.67;;;2.60;99.90;;;;;;4392951;28;655940;-68
2021/01/05 10:04:49;;;;;;;9.40;4.17;;;2.70;99.90;;;;;;4361902;28;656020;-68
2021/01/05 10:07:36;;;;;;;13.47;5.40;;;2.70;99.90;;;;;;4399980;28;656497;-68
2021/01/05 10:10:25;;;;;;;12.20;5.40;;;2.50;99.90;;;;;;4385577;28;656914;-66
2021/01/05 10:13:12;;;;;;;12.32;4.75;;;2.50;99.90;;;;;;4395260;28;658220;-68
2021/01/05 10:16:00;;;;;;;12.68;5.40;;;2.50;99.90;;;;;;4366125;28;657157;-65
2021/01/05 10:18:47;;;;;;;11.93;5.33;;;2.50;99.90;;;;;;4391314;28;658058;-68
2021/01/05 10:21:35;;;;;;;13.10;4.93;;;2.50;99.90;;;;;;4375739;28;657174;-66
2021/01/05 10:24:22;;;;;;;9.60;4.27;;;2.60;99.90;;;;;;4381755;28;657526;-68
2021/01/05 10:27:09;;;;;;;9.90;4.73;;;2.70;99.90;;;;;;4377246;28;655396;-66
2021/01/05 10:29:57;;;;;;;10.20;4.43;;;2.70;99.90;;;;;;4392908;28;656431;-68
2021/01/05 10:32:45;;;;;;;9.00;4.43;;;2.70;99.90;;;;;;4371037;28;656544;-67
2021/01/05 10:35:32;;;;;;;8.37;4.03;;;2.80;99.90;;;;;;4396687;28;657723;-68
2021/01/05 10:38:19;;;;;;;8.77;3.85;;;2.90;99.90;;;;;;4378989;28;655515;-67
2021/01/05 10:41:06;;;;;;;8.13;4.07;;;3.00;99.90;;;;;;4404801;28;655184;-68
2021/01/05 10:43:52;;;;;;;9.27;4.10;;;3.00;99.90;;;;;;4400223;28;656804;-69
2021/01/05 10:46:39;;;;;;;9.07;3.97;;;2.90;99.90;;;;;;4383175;28;655351;-68
2021/01/05 10:49:27;;;;;;;8.43;3.87;;;2.90;99.90;;;;;;4390058;28;656034;-69
2021/01/05 10:52:15;;;;;;;9.10;4.00;;;2.80;99.90;;;;;;4381533;28;656467;-69
2021/01/05 10:55:02;;;;;;;9.60;3.50;;;2.80;99.90;;;;;;4402231;28;656297;-68
2021/01/05 10:57:50;;;;;;;6.37;3.20;;;3.00;99.90;;;;;;4369484;28;655447;-68
2021/01/05 11:00:37;;;;;;;8.47;3.70;;;3.20;99.90;;;;;;4397035;28;655149;-69
2021/01/05 11:03:24;;;;;;;8.13;4.00;;;3.10;99.90;;;;;;4374467;28;655457;-68
2021/01/05 11:06:12;;;;;;;7.13;3.80;;;3.10;99.90;;;;;;4395950;28;656232;-69
2021/01/05 11:08:59;;;;;;;6.10;2.87;;;3.30;99.90;;;;;;4380275;28;655703;-66
2021/01/05 11:11:47;;;;;;;8.00;3.90;;;3.40;99.90;;;;;;4399909;28;657060;-69
2021/01/05 11:14:34;;;;;;;8.47;3.50;;;3.40;99.90;;;;;;4380459;28;655707;-68
2021/01/05 11:17:24;;;;;;;6.17;3.37;;;3.30;99.90;;;;;;4395490;28;656698;-68
2021/01/05 11:20:12;;;;;;;7.10;3.60;;;3.30;99.90;;;;;;4376031;28;656088;-68
2021/01/05 11:23:00;;;;;;;10.23;3.57;;;3.40;99.90;;;;;;4381243;28;655591;-68
2021/01/05 11:25:47;;;;;;;8.37;4.50;;;3.50;99.90;;;;;;4399639;28;657436;-69
2021/01/05 11:28:34;;;;;;;6.80;3.80;;;3.50;99.90;;;;;;4382938;28;655225;-68
2021/01/05 11:31:21;;;;;;;12.97;4.80;;;3.60;99.90;;;;;;4399262;28;656659;-68
2021/01/05 11:34:08;;;;;;;10.97;4.43;;;3.70;99.90;;;;;;4388844;28;656419;-68
2021/01/05 11:36:55;;;;;;;10.80;4.20;;;3.30;99.90;;;;;;4378967;28;656913;-69
2021/01/05 11:39:46;;;;;;;13.17;3.77;;;3.10;99.90;;;;;;4395607;28;656756;-69
2021/01/05 11:42:34;;;;;;;13.63;4.28;;;3.00;99.90;;;;;;4369515;28;656807;-66
2021/01/05 11:45:21;;;;;;;12.43;4.80;;;3.00;99.90;;;;;;4397175;28;656084;-69
2021/01/05 11:48:08;;;;;;;9.27;4.40;;;2.90;99.90;;;;;;4397287;28;656468;-69
2021/01/05 11:50:57;;;;;;;18.03;5.83;;;2.90;99.90;;;;;;4373281;28;655769;-69
2021/01/05 11:53:44;;;;;;;15.50;6.47;;;2.80;99.90;;;;;;4378328;28;656393;-68
2021/01/05 11:56:33;;;;;;;18.83;7.67;;;2.70;99.90;;;;;;4392819;28;656896;-68
2021/01/05 11:59:20;;;;;;;14.80;6.50;;;2.70;99.90;;;;;;4377120;28;657953;-68
2021/01/05 12:02:07;;;;;;;18.90;8.30;;;2.60;99.90;;;;;;4393082;28;656794;-69
2021/01/05 12:04:54;;;;;;;17.77;7.40;;;2.60;99.90;;;;;;4380978;28;656748;-66
2021/01/05 12:07:41;;;;;;;19.40;8.10;;;2.80;99.90;;;;;;4399094;28;656818;-69
2021/01/05 12:10:28;;;;;;;13.13;7.05;;;2.70;99.90;;;;;;4399522;28;657122;-69
2021/01/05 12:13:15;;;;;;;16.57;7.50;;;2.70;99.90;;;;;;4376611;28;656531;-68
2021/01/05 12:16:03;;;;;;;18.93;8.87;;;2.60;99.90;;;;;;4392355;28;656709;-69
2021/01/05 12:18:49;;;;;;;14.97;8.07;;;2.60;99.90;;;;;;4370469;28;657533;-69
2021/01/05 12:21:37;;;;;;;17.13;9.30;;;2.50;99.90;;;;;;4399281;28;656637;-69
2021/01/05 12:24:25;;;;;;;24.43;9.73;;;2.50;99.90;;;;;;4380162;28;656648;-68
2021/01/05 12:27:13;;;;;;;21.70;9.33;;;2.40;99.90;;;;;;4394541;28;656096;-68
2021/01/05 12:30:00;;;;;;;22.10;9.43;;;2.30;99.90;;;;;;4367650;28;656683;-68
2021/01/05 12:32:47;;;;;;;22.07;10.23;;;2.30;99.90;;;;;;4392140;28;656680;-69
2021/01/05 12:35:34;;;;;;;20.47;9.60;;;2.30;99.90;;;;;;4375418;28;658049;-68
2021/01/05 12:38:21;;;;;;;26.70;10.53;;;2.20;99.90;;;;;;4393728;28;657643;-69
2021/01/05 12:41:09;;;;;;;29.83;13.20;;;2.20;99.90;;;;;;4386068;28;658849;-66
2021/01/05 12:43:55;;;;;;;24.63;11.57;;;2.20;99.90;;;;;;4395050;28;658186;-68
2021/01/05 12:46:43;;;;;;;24.63;10.70;;;2.20;99.90;;;;;;4384257;28;659392;-68
2021/01/05 12:49:30;;;;;;;23.57;11.10;;;2.20;99.90;;;;;;4372737;28;659465;-68
2021/01/05 12:52:17;;;;;;;28.70;10.70;;;2.30;99.90;;;;;;4369195;28;657518;-68
2021/01/05 12:55:05;;;;;;;20.30;9.40;;;2.20;99.90;;;;;;4371707;28;657449;-69
2021/01/05 12:57:52;;;;;;;23.97;10.60;;;2.20;99.90;;;;;;4398203;28;657389;-69
2021/01/05 13:00:41;;;;;;;22.77;10.80;;;2.20;99.90;;;;;;4372194;28;657634;-67
2021/01/05 13:03:35;;;;;;;24.60;11.27;;;2.10;99.90;;;;;;4377027;28;658273;-67
2021/01/05 13:06:23;;;;;;;25.58;10.80;;;2.10;99.90;;;;;;4366357;28;657488;-69
2021/01/05 13:09:13;;;;;;;26.00;10.85;;;2.00;99.90;;;;;;4364220;28;657878;-68
2021/01/05 13:12:00;;;;;;;26.67;11.73;;;1.90;99.90;;;;;;4371482;28;657496;-67
2021/01/05 13:14:47;;;;;;;22.70;10.10;;;1.90;99.90;;;;;;4393401;28;659196;-68
2021/01/05 13:17:39;;;;;;;21.23;9.20;;;1.90;99.90;;;;;;4376539;28;657444;-67
2021/01/05 13:20:27;;;;;;;25.37;9.60;;;2.10;99.90;;;;;;4365858;28;657514;-68
2021/01/05 13:23:14;;;;;;;24.60;9.45;;;2.10;99.90;;;;;;4368851;28;656621;-67
2021/01/05 13:26:01;;;;;;;19.60;8.90;;;1.90;99.90;;;;;;4384726;28;657377;-68
2021/01/05 13:28:48;;;;;;;21.63;9.10;;;1.90;99.90;;;;;;4390853;28;657450;-69
2021/01/05 13:31:38;;;;;;;19.67;9.07;;;1.80;99.90;;;;;;4373991;28;656753;-68
2021/01/05 13:34:26;;;;;;;19.57;9.10;;;1.90;99.90;;;;;;4366927;28;658412;-68
2021/01/05 13:37:15;;;;;;;22.33;9.87;;;1.80;99.90;;;;;;4387143;28;656393;-65
2021/01/05 13:40:04;;;;;;;23.07;9.60;;;1.80;99.90;;;;;;4393353;28;656950;-68
2021/01/05 13:42:56;;;;;;;21.77;9.47;;;1.60;99.90;;;;;;4371641;28;657884;-67
2021/01/05 13:45:43;;;;;;;22.60;10.05;;;1.60;99.90;;;;;;4373169;28;657729;-69
2021/01/05 13:48:30;;;;;;;26.83;11.50;;;1.50;99.90;;;;;;4376737;28;657319;-68
2021/01/05 13:51:17;;;;;;;29.47;12.20;;;1.40;99.90;;;;;;4396535;28;659012;-69
2021/01/05 13:54:05;;;;;;;26.83;11.53;;;1.40;99.90;;;;;;4375311;28;657732;-66
2021/01/05 13:56:55;;;;;;;26.83;11.60;;;1.30;99.90;;;;;;4389723;28;658173;-69
2021/01/05 13:59:42;;;;;;;29.00;12.53;;;1.30;99.90;;;;;;4372196;28;658868;-68
2021/01/05 14:02:29;;;;;;;28.10;11.60;;;1.40;99.90;;;;;;4369386;28;657566;-68
2021/01/05 14:05:16;;;;;;;21.77;10.33;;;1.40;99.90;;;;;;4397433;28;659004;-69
2021/01/05 14:08:04;;;;;;;21.30;9.97;;;1.70;99.90;;;;;;4388773;28;657723;-67
2021/01/05 14:10:52;;;;;;;28.13;10.70;;;1.60;99.90;;;;;;4405362;28;657288;-69
2021/01/05 14:13:39;;;;;;;22.53;11.40;;;1.50;99.90;;;;;;4376238;28;657649;-69
2021/01/05 14:16:27;;;;;;;35.50;13.63;;;1.40;99.90;;;;;;4399758;28;658891;-68
2021/01/05 14:19:14;;;;;;;26.20;13.02;;;1.40;99.90;;;;;;4376894;28;657544;-66
2021/01/05 14:22:01;;;;;;;36.13;16.25;;;1.30;99.90;;;;;;4404503;28;657327;-68
2021/01/05 14:24:49;;;;;;;39.87;16.40;;;1.30;99.90;;;;;;4395388;28;658037;-68
2021/01/05 14:27:36;;;;;;;36.73;16.13;;;1.30;99.90;;;;;;4362152;28;658611;-68
2021/01/05 14:30:24;;;;;;;36.60;15.10;;;1.50;99.90;;;;;;4389056;28;657478;-66